TCA7952 SLLP-SASA
Flight info
| Callsign | TCA7952 |
|---|---|
| Flight time | N/A |
| Altitude | 35000 |
| Route | ARPIS DCT ARUBO DCT GESPA DCT NAXET DCT JUJ JUJ2A |
| Aircraft | A321/M-SDE3FGHIRWY/LB1 |
Departure
| Time | N/A |
|---|---|
| Airport | El Alto International Airport (SLLP) |
Arrival
| Time | 2026-05-03 20:54 |
|---|---|
| Airport | Martín Miguel de Güemes International Airport (SASA) |
| Time | Latitude | Longitude | Altitude | Speed | Heading |
|---|---|---|---|---|---|
| 2026-05-03 20:15 | -21.85156 | -65.48744 | 35074 ft | 468 kts | 182° |
| 2026-05-03 20:15 | -21.91588 | -65.47726 | 35073 ft | 467 kts | 182° |
| 2026-05-03 20:16 | -21.98004 | -65.46711 | 35073 ft | 467 kts | 182° |
| 2026-05-03 20:16 | -22.04420 | -65.45696 | 35074 ft | 467 kts | 182° |
| 2026-05-03 20:17 | -22.10823 | -65.45052 | 35072 ft | 458 kts | 189° |
| 2026-05-03 20:17 | -22.17145 | -65.45060 | 35073 ft | 455 kts | 192° |
| 2026-05-03 20:18 | -22.23475 | -65.45158 | 35074 ft | 455 kts | 192° |
| 2026-05-03 20:18 | -22.29851 | -65.45247 | 35073 ft | 455 kts | 192° |
| 2026-05-03 20:19 | -22.36300 | -65.45334 | 35074 ft | 455 kts | 192° |
| 2026-05-03 20:19 | -22.42625 | -65.45414 | 35072 ft | 456 kts | 192° |
| 2026-05-03 20:20 | -22.48962 | -65.45493 | 35073 ft | 456 kts | 192° |
| 2026-05-03 20:20 | -22.55330 | -65.45570 | 35074 ft | 456 kts | 192° |
| 2026-05-03 20:21 | -22.61682 | -65.45647 | 35073 ft | 456 kts | 192° |
| 2026-05-03 20:21 | -22.68017 | -65.45722 | 35073 ft | 457 kts | 192° |
| 2026-05-03 20:22 | -22.74379 | -65.45795 | 35075 ft | 456 kts | 192° |
| 2026-05-03 20:22 | -22.80746 | -65.45870 | 34866 ft | 455 kts | 192° |
| 2026-05-03 20:22 | -22.83955 | -65.45905 | 34625 ft | 453 kts | 192° |
| 2026-05-03 20:23 | -22.87121 | -65.45942 | 34383 ft | 450 kts | 192° |
| 2026-05-03 20:23 | -22.90225 | -65.45983 | 34144 ft | 449 kts | 192° |
| 2026-05-03 20:23 | -22.93371 | -65.46029 | 33900 ft | 449 kts | 191° |
| 2026-05-03 20:23 | -22.96522 | -65.46075 | 33652 ft | 451 kts | 190° |
| 2026-05-03 20:24 | -22.99657 | -65.46121 | 33407 ft | 453 kts | 189° |
| 2026-05-03 20:24 | -23.02830 | -65.46160 | 33161 ft | 453 kts | 188° |
| 2026-05-03 20:24 | -23.06006 | -65.46198 | 32917 ft | 452 kts | 188° |
| 2026-05-03 20:24 | -23.09196 | -65.46232 | 32671 ft | 452 kts | 188° |
| 2026-05-03 20:25 | -23.12423 | -65.46265 | 32423 ft | 451 kts | 188° |
| 2026-05-03 20:25 | -23.15656 | -65.46300 | 32176 ft | 451 kts | 188° |
| 2026-05-03 20:25 | -23.18801 | -65.46336 | 31932 ft | 451 kts | 188° |
| 2026-05-03 20:25 | -23.21992 | -65.46374 | 31682 ft | 450 kts | 188° |
| 2026-05-03 20:26 | -23.25164 | -65.46412 | 31437 ft | 450 kts | 188° |
| 2026-05-03 20:26 | -23.28340 | -65.46450 | 31190 ft | 449 kts | 188° |
| 2026-05-03 20:26 | -23.31533 | -65.46489 | 30944 ft | 449 kts | 188° |
| 2026-05-03 20:26 | -23.34664 | -65.46527 | 30701 ft | 449 kts | 188° |
| 2026-05-03 20:27 | -23.37845 | -65.46565 | 30457 ft | 449 kts | 188° |
| 2026-05-03 20:27 | -23.41015 | -65.46603 | 30212 ft | 449 kts | 187° |
| 2026-05-03 20:27 | -23.44146 | -65.46640 | 29970 ft | 449 kts | 187° |
| 2026-05-03 20:27 | -23.47317 | -65.46677 | 29723 ft | 448 kts | 187° |
| 2026-05-03 20:28 | -23.50478 | -65.46709 | 29477 ft | 449 kts | 186° |
| 2026-05-03 20:28 | -23.53640 | -65.46506 | 29234 ft | 454 kts | 180° |
| 2026-05-03 20:28 | -23.56771 | -65.45933 | 28986 ft | 458 kts | 173° |
| 2026-05-03 20:28 | -23.59878 | -65.44970 | 28719 ft | 459 kts | 166° |
| 2026-05-03 20:29 | -23.62905 | -65.43700 | 28455 ft | 456 kts | 163° |
| 2026-05-03 20:29 | -23.65824 | -65.42384 | 28185 ft | 453 kts | 163° |
| 2026-05-03 20:29 | -23.68759 | -65.41046 | 27820 ft | 451 kts | 163° |
| 2026-05-03 20:29 | -23.71659 | -65.39729 | 27400 ft | 447 kts | 163° |
| 2026-05-03 20:30 | -23.74538 | -65.38429 | 26972 ft | 444 kts | 163° |
| 2026-05-03 20:30 | -23.77421 | -65.37132 | 26541 ft | 439 kts | 163° |
| 2026-05-03 20:30 | -23.80258 | -65.35860 | 26107 ft | 435 kts | 163° |
| 2026-05-03 20:30 | -23.83066 | -65.34602 | 25679 ft | 431 kts | 163° |
| 2026-05-03 20:31 | -23.85860 | -65.33337 | 25243 ft | 427 kts | 162° |
| 2026-05-03 20:31 | -23.88612 | -65.32090 | 24809 ft | 422 kts | 162° |
| 2026-05-03 20:31 | -23.91327 | -65.30864 | 24381 ft | 418 kts | 162° |
| 2026-05-03 20:31 | -23.93975 | -65.29672 | 23955 ft | 414 kts | 162° |
| 2026-05-03 20:32 | -23.96654 | -65.28468 | 23519 ft | 410 kts | 162° |
| 2026-05-03 20:32 | -23.99336 | -65.27261 | 23083 ft | 407 kts | 162° |
| 2026-05-03 20:32 | -24.01980 | -65.26073 | 22652 ft | 403 kts | 162° |
| 2026-05-03 20:32 | -24.04573 | -65.24908 | 22222 ft | 399 kts | 162° |
| 2026-05-03 20:33 | -24.07159 | -65.23745 | 21785 ft | 396 kts | 162° |
| 2026-05-03 20:33 | -24.09750 | -65.22581 | 21344 ft | 393 kts | 162° |
| 2026-05-03 20:33 | -24.12326 | -65.21426 | 20901 ft | 390 kts | 162° |
| 2026-05-03 20:33 | -24.14857 | -65.20293 | 20463 ft | 387 kts | 162° |
| 2026-05-03 20:34 | -24.17411 | -65.19149 | 20017 ft | 384 kts | 161° |
| 2026-05-03 20:34 | -24.19876 | -65.18042 | 19582 ft | 382 kts | 161° |
| 2026-05-03 20:34 | -24.22385 | -65.16915 | 19136 ft | 379 kts | 161° |
| 2026-05-03 20:34 | -24.24860 | -65.15802 | 18697 ft | 377 kts | 161° |
| 2026-05-03 20:35 | -24.27301 | -65.14702 | 18261 ft | 374 kts | 161° |
| 2026-05-03 20:35 | -24.29719 | -65.13608 | 17823 ft | 372 kts | 160° |
| 2026-05-03 20:35 | -24.32129 | -65.12521 | 17385 ft | 369 kts | 160° |
| 2026-05-03 20:35 | -24.34493 | -65.11456 | 16951 ft | 367 kts | 160° |
| 2026-05-03 20:36 | -24.36870 | -65.10418 | 16505 ft | 364 kts | 165° |
| 2026-05-03 20:36 | -24.39346 | -65.09947 | 16053 ft | 358 kts | 181° |
| 2026-05-03 20:36 | -24.41823 | -65.10278 | 15930 ft | 345 kts | 197° |
| 2026-05-03 20:36 | -24.44056 | -65.11095 | 15954 ft | 327 kts | 201° |
| 2026-05-03 20:37 | -24.46144 | -65.11943 | 15969 ft | 310 kts | 202° |
| 2026-05-03 20:37 | -24.48132 | -65.12756 | 15985 ft | 293 kts | 202° |
| 2026-05-03 20:37 | -24.50005 | -65.13520 | 16000 ft | 279 kts | 202° |
| 2026-05-03 20:37 | -24.51873 | -65.14281 | 16025 ft | 281 kts | 202° |
| 2026-05-03 20:38 | -24.53751 | -65.15043 | 16049 ft | 281 kts | 202° |
| 2026-05-03 20:38 | -24.55614 | -65.15798 | 16069 ft | 281 kts | 201° |
| 2026-05-03 20:38 | -24.57472 | -65.16549 | 16020 ft | 280 kts | 201° |
| 2026-05-03 20:38 | -24.59297 | -65.17286 | 16065 ft | 281 kts | 201° |
| 2026-05-03 20:39 | -24.61150 | -65.18033 | 16072 ft | 274 kts | 201° |
| 2026-05-03 20:39 | -24.62918 | -65.18745 | 16080 ft | 265 kts | 202° |
| 2026-05-03 20:39 | -24.64680 | -65.19456 | 16084 ft | 269 kts | 202° |
| 2026-05-03 20:39 | -24.66445 | -65.20168 | 16086 ft | 269 kts | 202° |
| 2026-05-03 20:40 | -24.68226 | -65.20887 | 16086 ft | 269 kts | 202° |
| 2026-05-03 20:40 | -24.69967 | -65.21590 | 15989 ft | 265 kts | 201° |
| 2026-05-03 20:40 | -24.71719 | -65.22298 | 15617 ft | 266 kts | 201° |
| 2026-05-03 20:40 | -24.73475 | -65.23008 | 15222 ft | 266 kts | 201° |
| 2026-05-03 20:41 | -24.75199 | -65.23705 | 14876 ft | 266 kts | 201° |
| 2026-05-03 20:41 | -24.76939 | -65.24409 | 14595 ft | 262 kts | 201° |
| 2026-05-03 20:41 | -24.78663 | -65.25105 | 14327 ft | 258 kts | 201° |
| 2026-05-03 20:41 | -24.80365 | -65.25794 | 14060 ft | 254 kts | 201° |
| 2026-05-03 20:42 | -24.82039 | -65.26470 | 13797 ft | 250 kts | 201° |
| 2026-05-03 20:42 | -24.83675 | -65.27132 | 13538 ft | 246 kts | 201° |
| 2026-05-03 20:42 | -24.85298 | -65.27790 | 13277 ft | 242 kts | 201° |
| 2026-05-03 20:42 | -24.86894 | -65.28436 | 13012 ft | 239 kts | 200° |
| 2026-05-03 20:43 | -24.88473 | -65.29076 | 12701 ft | 238 kts | 200° |
| 2026-05-03 20:43 | -24.90056 | -65.29717 | 12369 ft | 237 kts | 200° |
| 2026-05-03 20:43 | -24.91630 | -65.30356 | 12041 ft | 237 kts | 200° |
| 2026-05-03 20:43 | -24.93193 | -65.30990 | 11718 ft | 236 kts | 200° |
| 2026-05-03 20:44 | -24.94751 | -65.31620 | 11406 ft | 235 kts | 200° |
| 2026-05-03 20:44 | -24.96289 | -65.32243 | 11099 ft | 235 kts | 201° |
| 2026-05-03 20:44 | -24.97855 | -65.32878 | 10782 ft | 234 kts | 201° |
| 2026-05-03 20:44 | -24.99402 | -65.33506 | 10459 ft | 234 kts | 201° |
| 2026-05-03 20:45 | -25.00941 | -65.34132 | 10265 ft | 234 kts | 201° |
| 2026-05-03 20:45 | -25.02482 | -65.34758 | 10200 ft | 228 kts | 202° |
| 2026-05-03 20:45 | -25.03998 | -65.35374 | 10111 ft | 226 kts | 202° |
| 2026-05-03 20:45 | -25.05480 | -65.36002 | 10044 ft | 228 kts | 205° |
| 2026-05-03 20:46 | -25.06933 | -65.36823 | 9922 ft | 230 kts | 212° |
| 2026-05-03 20:46 | -25.08291 | -65.37824 | 9597 ft | 228 kts | 216° |
| 2026-05-03 20:46 | -25.09592 | -65.38840 | 9328 ft | 229 kts | 216° |
| 2026-05-03 20:46 | -25.10932 | -65.39883 | 9262 ft | 229 kts | 215° |
| 2026-05-03 20:47 | -25.12246 | -65.40895 | 9161 ft | 231 kts | 215° |
| 2026-05-03 20:47 | -25.13606 | -65.41942 | 9007 ft | 230 kts | 215° |
| 2026-05-03 20:47 | -25.14810 | -65.43099 | 8779 ft | 227 kts | 239° |
| 2026-05-03 20:47 | -25.15144 | -65.44787 | 8706 ft | 224 kts | 279° |
| 2026-05-03 20:48 | -25.14454 | -65.46291 | 8155 ft | 221 kts | 321° |
| 2026-05-03 20:48 | -25.13102 | -65.46943 | 7819 ft | 210 kts | 347° |
| 2026-05-03 20:48 | -25.11740 | -65.47456 | 7511 ft | 205 kts | 338° |
| 2026-05-03 20:48 | -25.10465 | -65.48129 | 7238 ft | 197 kts | 335° |
| 2026-05-03 20:49 | -25.09255 | -65.48834 | 6867 ft | 193 kts | 333° |
| 2026-05-03 20:49 | -25.08084 | -65.49551 | 6489 ft | 191 kts | 332° |
| 2026-05-03 20:49 | -25.06912 | -65.50287 | 6159 ft | 185 kts | 332° |
| 2026-05-03 20:49 | -25.05852 | -65.50966 | 6140 ft | 171 kts | 331° |
| 2026-05-03 20:50 | -25.04820 | -65.51629 | 6152 ft | 171 kts | 331° |
| 2026-05-03 20:50 | -25.03739 | -65.52216 | 6134 ft | 170 kts | 348° |
| 2026-05-03 20:50 | -25.02585 | -65.52206 | 6134 ft | 154 kts | 6° |
| 2026-05-03 20:50 | -25.01549 | -65.52036 | 6142 ft | 151 kts | 8° |
| 2026-05-03 20:51 | -25.00481 | -65.51834 | 6152 ft | 153 kts | 9° |
| 2026-05-03 20:51 | -24.99445 | -65.51625 | 6145 ft | 149 kts | 9° |
| 2026-05-03 20:51 | -24.98393 | -65.51406 | 6153 ft | 150 kts | 9° |
| 2026-05-03 20:51 | -24.97363 | -65.51189 | 6096 ft | 151 kts | 9° |
| 2026-05-03 20:52 | -24.96332 | -65.50970 | 5894 ft | 149 kts | 10° |
| 2026-05-03 20:52 | -24.95312 | -65.50748 | 5705 ft | 149 kts | 10° |
| 2026-05-03 20:52 | -24.94285 | -65.50522 | 5509 ft | 148 kts | 10° |
| 2026-05-03 20:52 | -24.93267 | -65.50299 | 5312 ft | 147 kts | 11° |
| 2026-05-03 20:53 | -24.92262 | -65.50080 | 5120 ft | 147 kts | 11° |
| 2026-05-03 20:53 | -24.91267 | -65.49863 | 4926 ft | 146 kts | 11° |
| 2026-05-03 20:53 | -24.90255 | -65.49644 | 4728 ft | 146 kts | 11° |
| 2026-05-03 20:53 | -24.89249 | -65.49425 | 4532 ft | 145 kts | 12° |
| 2026-05-03 20:54 | -24.88258 | -65.49202 | 4329 ft | 145 kts | 10° |
| 2026-05-03 20:54 | -24.86326 | -65.48785 | 4082 ft | 113 kts | 11° |
| 2026-05-03 20:54 | -24.85831 | -65.48679 | 4074 ft | 42 kts | 10° |
| 2026-05-03 20:55 | -24.85504 | -65.48600 | 4068 ft | 44 kts | 10° |
| 2026-05-03 20:55 | -24.85206 | -65.48541 | 4062 ft | 42 kts | 11° |
| 2026-05-03 20:55 | -24.84928 | -65.48479 | 4057 ft | 35 kts | 11° |
| 2026-05-03 20:55 | -24.84753 | -65.48441 | 4055 ft | 18 kts | 15° |
| 2026-05-03 20:56 | -24.84660 | -65.48374 | 4050 ft | 13 kts | 46° |
| 2026-05-03 20:56 | -24.84612 | -65.48297 | 4046 ft | 9 kts | 65° |
| 2026-05-03 20:56 | -24.84588 | -65.48225 | 4043 ft | 7 kts | 71° |
| 2026-05-03 20:56 | -24.84579 | -65.48195 | 4042 ft | 0 kts | 72° |
| 2026-05-03 20:57 | -24.84577 | -65.48187 | 4042 ft | 3 kts | 72° |
| 2026-05-03 20:57 | -24.84565 | -65.48145 | 4040 ft | 8 kts | 72° |
| 2026-05-03 20:57 | -24.84542 | -65.48068 | 4037 ft | 12 kts | 72° |
| 2026-05-03 20:58 | -24.84524 | -65.47998 | 4035 ft | 10 kts | 73° |
| 2026-05-03 20:58 | -24.84505 | -65.47942 | 4032 ft | 3 kts | 69° |
| 2026-05-03 20:58 | -24.84492 | -65.47903 | 4031 ft | 4 kts | 70° |
| 2026-05-03 20:58 | -24.84490 | -65.47898 | 4031 ft | 0 kts | 70° |